sensor_id;sensor_type;location;lat;lon;timestamp;temperature;humidity
19862;DHT22;10093;48.148;8.542;2023-12-14T00:00:25;3.00;99.90
19862;DHT22;10093;48.148;8.542;2023-12-14T00:02:51;2.80;99.90
19862;DHT22;10093;48.148;8.542;2023-12-14T00:05:17;2.70;99.90
19862;DHT22;10093;48.148;8.542;2023-12-14T00:07:42;2.60;99.90
19862;DHT22;10093;48.148;8.542;2023-12-14T00:10:08;2.50;99.90
19862;DHT22;10093;48.148;8.542;2023-12-14T00:12:34;2.40;99.90
19862;DHT22;10093;48.148;8.542;2023-12-14T00:14:59;2.40;99.90
19862;DHT22;10093;48.148;8.542;2023-12-14T00:17:25;2.40;99.90
19862;DHT22;10093;48.148;8.542;2023-12-14T00:19:50;2.40;99.90
19862;DHT22;10093;48.148;8.542;2023-12-14T00:22:16;2.40;99.90
19862;DHT22;10093;48.148;8.542;2023-12-14T00:24:41;2.40;99.90
19862;DHT22;10093;48.148;8.542;2023-12-14T00:27:08;2.30;99.90
19862;DHT22;10093;48.148;8.542;2023-12-14T00:29:45;2.50;99.90
19862;DHT22;10093;48.148;8.542;2023-12-14T00:32:11;2.60;99.90
19862;DHT22;10093;48.148;8.542;2023-12-14T00:34:36;2.50;99.90
19862;DHT22;10093;48.148;8.542;2023-12-14T00:37:02;2.50;99.90
19862;DHT22;10093;48.148;8.542;2023-12-14T00:39:27;2.50;99.90
19862;DHT22;10093;48.148;8.542;2023-12-14T00:41:53;2.40;99.90
19862;DHT22;10093;48.148;8.542;2023-12-14T00:44:18;2.30;99.90
19862;DHT22;10093;48.148;8.542;2023-12-14T00:46:44;2.30;99.90
19862;DHT22;10093;48.148;8.542;2023-12-14T00:49:09;2.20;99.90
19862;DHT22;10093;48.148;8.542;2023-12-14T00:51:35;2.10;99.90
19862;DHT22;10093;48.148;8.542;2023-12-14T00:54:01;2.20;99.90
19862;DHT22;10093;48.148;8.542;2023-12-14T00:56:26;2.20;99.90
19862;DHT22;10093;48.148;8.542;2023-12-14T00:58:52;2.30;99.90
19862;DHT22;10093;48.148;8.542;2023-12-14T01:01:17;2.40;99.90
19862;DHT22;10093;48.148;8.542;2023-12-14T01:03:43;2.40;99.90
19862;DHT22;10093;48.148;8.542;2023-12-14T01:06:08;2.60;99.90
19862;DHT22;10093;48.148;8.542;2023-12-14T01:08:34;2.60;99.90
19862;DHT22;10093;48.148;8.542;2023-12-14T01:11:00;2.40;99.90
19862;DHT22;10093;48.148;8.542;2023-12-14T01:13:25;2.30;99.90
19862;DHT22;10093;48.148;8.542;2023-12-14T01:15:51;2.10;99.90
19862;DHT22;10093;48.148;8.542;2023-12-14T01:18:16;2.10;99.90
19862;DHT22;10093;48.148;8.542;2023-12-14T01:20:42;2.10;99.90
19862;DHT22;10093;48.148;8.542;2023-12-14T01:23:08;2.00;99.90
19862;DHT22;10093;48.148;8.542;2023-12-14T01:25:35;2.10;99.90
19862;DHT22;10093;48.148;8.542;2023-12-14T01:28:01;2.10;99.90
19862;DHT22;10093;48.148;8.542;2023-12-14T01:30:27;2.10;99.90
19862;DHT22;10093;48.148;8.542;2023-12-14T01:32:52;2.20;99.90
19862;DHT22;10093;48.148;8.542;2023-12-14T01:35:18;2.30;99.90
19862;DHT22;10093;48.148;8.542;2023-12-14T01:37:43;2.30;99.90
19862;DHT22;10093;48.148;8.542;2023-12-14T01:40:09;2.20;99.90
19862;DHT22;10093;48.148;8.542;2023-12-14T01:42:35;2.20;99.90
19862;DHT22;10093;48.148;8.542;2023-12-14T01:45:00;2.20;99.90
19862;DHT22;10093;48.148;8.542;2023-12-14T01:47:26;2.10;99.90
19862;DHT22;10093;48.148;8.542;2023-12-14T01:49:52;2.10;99.90
19862;DHT22;10093;48.148;8.542;2023-12-14T01:52:17;2.10;99.90
19862;DHT22;10093;48.148;8.542;2023-12-14T01:54:43;2.10;99.90
19862;DHT22;10093;48.148;8.542;2023-12-14T01:57:08;2.00;99.90
19862;DHT22;10093;48.148;8.542;2023-12-14T01:59:34;2.00;99.90
19862;DHT22;10093;48.148;8.542;2023-12-14T02:01:59;2.10;99.90
19862;DHT22;10093;48.148;8.542;2023-12-14T02:04:26;2.10;99.90
19862;DHT22;10093;48.148;8.542;2023-12-14T02:06:52;2.20;99.90
19862;DHT22;10093;48.148;8.542;2023-12-14T02:09:18;2.20;99.90
19862;DHT22;10093;48.148;8.542;2023-12-14T02:11:43;2.20;99.90
19862;DHT22;10093;48.148;8.542;2023-12-14T02:14:09;2.10;99.90
19862;DHT22;10093;48.148;8.542;2023-12-14T02:16:35;2.10;99.90
19862;DHT22;10093;48.148;8.542;2023-12-14T02:19:04;2.20;99.90
19862;DHT22;10093;48.148;8.542;2023-12-14T02:21:30;2.30;99.90
19862;DHT22;10093;48.148;8.542;2023-12-14T02:23:55;2.40;99.90
19862;DHT22;10093;48.148;8.542;2023-12-14T02:26:21;2.40;99.90
19862;DHT22;10093;48.148;8.542;2023-12-14T02:28:46;2.50;99.90
19862;DHT22;10093;48.148;8.542;2023-12-14T02:31:12;2.50;99.90
19862;DHT22;10093;48.148;8.542;2023-12-14T02:33:38;2.60;99.90
19862;DHT22;10093;48.148;8.542;2023-12-14T02:36:04;2.70;99.90
19862;DHT22;10093;48.148;8.542;2023-12-14T02:38:30;2.70;99.90
19862;DHT22;10093;48.148;8.542;2023-12-14T02:40:55;2.60;99.90
19862;DHT22;10093;48.148;8.542;2023-12-14T02:43:21;2.60;99.90
19862;DHT22;10093;48.148;8.542;2023-12-14T02:45:48;2.60;99.90
19862;DHT22;10093;48.148;8.542;2023-12-14T02:48:14;2.50;99.90
19862;DHT22;10093;48.148;8.542;2023-12-14T02:50:39;2.50;99.90
19862;DHT22;10093;48.148;8.542;2023-12-14T02:53:05;2.50;99.90
19862;DHT22;10093;48.148;8.542;2023-12-14T02:55:31;2.50;99.90
19862;DHT22;10093;48.148;8.542;2023-12-14T02:57:56;2.50;99.90
19862;DHT22;10093;48.148;8.542;2023-12-14T03:00:22;2.50;99.90
19862;DHT22;10093;48.148;8.542;2023-12-14T03:02:48;2.40;99.90
19862;DHT22;10093;48.148;8.542;2023-12-14T03:05:13;2.40;99.90
19862;DHT22;10093;48.148;8.542;2023-12-14T03:07:39;2.40;99.90
19862;DHT22;10093;48.148;8.542;2023-12-14T03:10:05;2.50;99.90
19862;DHT22;10093;48.148;8.542;2023-12-14T03:12:31;2.60;99.90
19862;DHT22;10093;48.148;8.542;2023-12-14T03:14:56;2.80;99.90
19862;DHT22;10093;48.148;8.542;2023-12-14T03:17:22;2.90;99.90
19862;DHT22;10093;48.148;8.542;2023-12-14T03:19:47;3.00;99.90
19862;DHT22;10093;48.148;8.542;2023-12-14T03:22:13;2.90;99.90
19862;DHT22;10093;48.148;8.542;2023-12-14T03:24:39;2.80;99.90
19862;DHT22;10093;48.148;8.542;2023-12-14T03:27:05;2.70;99.90
19862;DHT22;10093;48.148;8.542;2023-12-14T03:29:31;2.80;99.90
19862;DHT22;10093;48.148;8.542;2023-12-14T03:31:57;2.90;99.90
19862;DHT22;10093;48.148;8.542;2023-12-14T03:34:23;2.90;99.90
19862;DHT22;10093;48.148;8.542;2023-12-14T03:36:49;2.80;99.90
19862;DHT22;10093;48.148;8.542;2023-12-14T03:39:15;2.80;99.90
19862;DHT22;10093;48.148;8.542;2023-12-14T03:41:42;3.00;99.90
19862;DHT22;10093;48.148;8.542;2023-12-14T03:44:08;3.00;99.90
19862;DHT22;10093;48.148;8.542;2023-12-14T03:46:33;2.90;99.90
19862;DHT22;10093;48.148;8.542;2023-12-14T03:49:00;2.90;99.90
19862;DHT22;10093;48.148;8.542;2023-12-14T03:51:25;2.80;99.90
19862;DHT22;10093;48.148;8.542;2023-12-14T03:53:51;2.80;99.90
19862;DHT22;10093;48.148;8.542;2023-12-14T03:56:16;3.00;99.90
19862;DHT22;10093;48.148;8.542;2023-12-14T03:58:42;2.90;99.90
19862;DHT22;10093;48.148;8.542;2023-12-14T04:01:08;3.00;99.90
19862;DHT22;10093;48.148;8.542;2023-12-14T04:03:33;3.20;99.90
19862;DHT22;10093;48.148;8.542;2023-12-14T04:05:59;3.30;99.90
19862;DHT22;10093;48.148;8.542;2023-12-14T04:08:24;3.30;99.90
19862;DHT22;10093;48.148;8.542;2023-12-14T04:10:50;3.20;99.90
19862;DHT22;10093;48.148;8.542;2023-12-14T04:13:15;3.20;99.90
19862;DHT22;10093;48.148;8.542;2023-12-14T04:15:42;3.00;99.90
19862;DHT22;10093;48.148;8.542;2023-12-14T04:18:08;3.10;99.90
19862;DHT22;10093;48.148;8.542;2023-12-14T04:20:34;3.20;99.90
19862;DHT22;10093;48.148;8.542;2023-12-14T04:22:59;3.20;99.90
19862;DHT22;10093;48.148;8.542;2023-12-14T04:25:25;3.20;99.90
19862;DHT22;10093;48.148;8.542;2023-12-14T04:27:50;3.10;99.90
19862;DHT22;10093;48.148;8.542;2023-12-14T04:30:16;3.10;99.90
19862;DHT22;10093;48.148;8.542;2023-12-14T04:32:42;3.10;99.90
19862;DHT22;10093;48.148;8.542;2023-12-14T04:35:08;3.00;99.90
19862;DHT22;10093;48.148;8.542;2023-12-14T04:37:33;2.90;99.90
19862;DHT22;10093;48.148;8.542;2023-12-14T04:39:59;3.10;99.90
19862;DHT22;10093;48.148;8.542;2023-12-14T04:42:25;2.90;99.90
19862;DHT22;10093;48.148;8.542;2023-12-14T04:44:50;2.90;99.90
19862;DHT22;10093;48.148;8.542;2023-12-14T04:47:16;2.80;99.90
19862;DHT22;10093;48.148;8.542;2023-12-14T04:49:42;2.60;99.90
19862;DHT22;10093;48.148;8.542;2023-12-14T04:52:07;2.70;99.90
19862;DHT22;10093;48.148;8.542;2023-12-14T04:54:34;2.80;99.90
19862;DHT22;10093;48.148;8.542;2023-12-14T04:57:03;2.80;99.90
19862;DHT22;10093;48.148;8.542;2023-12-14T04:59:29;2.80;99.90
19862;DHT22;10093;48.148;8.542;2023-12-14T05:01:54;2.60;99.90
19862;DHT22;10093;48.148;8.542;2023-12-14T05:04:20;2.60;99.90
19862;DHT22;10093;48.148;8.542;2023-12-14T05:06:45;2.60;99.90
19862;DHT22;10093;48.148;8.542;2023-12-14T05:09:11;2.50;99.90
19862;DHT22;10093;48.148;8.542;2023-12-14T05:11:39;2.80;99.90
19862;DHT22;10093;48.148;8.542;2023-12-14T05:14:04;2.80;99.90
19862;DHT22;10093;48.148;8.542;2023-12-14T05:16:30;3.00;99.90
19862;DHT22;10093;48.148;8.542;2023-12-14T05:18:56;3.20;99.90
19862;DHT22;10093;48.148;8.542;2023-12-14T05:21:28;3.00;99.90
19862;DHT22;10093;48.148;8.542;2023-12-14T05:23:54;3.00;99.90
19862;DHT22;10093;48.148;8.542;2023-12-14T05:26:19;3.10;99.90
19862;DHT22;10093;48.148;8.542;2023-12-14T05:28:45;3.20;99.90
19862;DHT22;10093;48.148;8.542;2023-12-14T05:31:10;3.20;99.90
19862;DHT22;10093;48.148;8.542;2023-12-14T05:33:37;3.30;99.90
19862;DHT22;10093;48.148;8.542;2023-12-14T05:36:03;3.20;99.90
19862;DHT22;10093;48.148;8.542;2023-12-14T05:38:31;3.20;99.90
19862;DHT22;10093;48.148;8.542;2023-12-14T05:40:57;3.30;99.90
19862;DHT22;10093;48.148;8.542;2023-12-14T05:43:22;3.30;99.90
19862;DHT22;10093;48.148;8.542;2023-12-14T05:45:48;3.30;99.90
19862;DHT22;10093;48.148;8.542;2023-12-14T05:48:13;3.20;99.90
19862;DHT22;10093;48.148;8.542;2023-12-14T05:50:39;3.20;99.90
19862;DHT22;10093;48.148;8.542;2023-12-14T05:53:05;3.20;99.90
19862;DHT22;10093;48.148;8.542;2023-12-14T05:55:30;3.20;99.90
19862;DHT22;10093;48.148;8.542;2023-12-14T05:57:56;3.20;99.90
19862;DHT22;10093;48.148;8.542;2023-12-14T06:00:22;3.20;99.90
19862;DHT22;10093;48.148;8.542;2023-12-14T06:02:47;3.10;99.90
19862;DHT22;10093;48.148;8.542;2023-12-14T06:05:13;3.20;99.90
19862;DHT22;10093;48.148;8.542;2023-12-14T06:07:39;3.10;99.90
19862;DHT22;10093;48.148;8.542;2023-12-14T06:10:05;3.00;99.90
19862;DHT22;10093;48.148;8.542;2023-12-14T06:12:31;3.10;99.90
19862;DHT22;10093;48.148;8.542;2023-12-14T06:14:56;3.10;99.90
19862;DHT22;10093;48.148;8.542;2023-12-14T06:17:22;3.00;99.90
19862;DHT22;10093;48.148;8.542;2023-12-14T06:19:48;2.90;99.90
19862;DHT22;10093;48.148;8.542;2023-12-14T06:22:13;3.00;99.90
19862;DHT22;10093;48.148;8.542;2023-12-14T06:24:39;3.00;99.90
19862;DHT22;10093;48.148;8.542;2023-12-14T06:27:04;3.10;99.90
19862;DHT22;10093;48.148;8.542;2023-12-14T06:29:30;3.10;99.90
19862;DHT22;10093;48.148;8.542;2023-12-14T06:31:56;3.20;99.90
19862;DHT22;10093;48.148;8.542;2023-12-14T06:34:22;3.20;99.90
19862;DHT22;10093;48.148;8.542;2023-12-14T06:36:47;3.30;99.90
19862;DHT22;10093;48.148;8.542;2023-12-14T06:39:13;3.40;99.90
19862;DHT22;10093;48.148;8.542;2023-12-14T06:41:39;3.50;99.90
19862;DHT22;10093;48.148;8.542;2023-12-14T06:44:05;3.60;99.90
19862;DHT22;10093;48.148;8.542;2023-12-14T06:46:30;3.60;99.90
19862;DHT22;10093;48.148;8.542;2023-12-14T06:48:56;3.70;99.90
19862;DHT22;10093;48.148;8.542;2023-12-14T06:51:22;3.60;99.90
19862;DHT22;10093;48.148;8.542;2023-12-14T06:53:48;3.60;99.90
19862;DHT22;10093;48.148;8.542;2023-12-14T06:56:14;3.50;99.90
19862;DHT22;10093;48.148;8.542;2023-12-14T06:58:41;3.50;99.90
19862;DHT22;10093;48.148;8.542;2023-12-14T07:01:08;3.50;99.90
19862;DHT22;10093;48.148;8.542;2023-12-14T07:03:40;3.60;99.90
19862;DHT22;10093;48.148;8.542;2023-12-14T07:06:06;3.70;99.90
19862;DHT22;10093;48.148;8.542;2023-12-14T07:08:32;3.60;99.90
19862;DHT22;10093;48.148;8.542;2023-12-14T07:10:58;3.60;99.90
19862;DHT22;10093;48.148;8.542;2023-12-14T07:13:23;3.60;99.90
19862;DHT22;10093;48.148;8.542;2023-12-14T07:15:49;3.80;99.90
19862;DHT22;10093;48.148;8.542;2023-12-14T07:18:15;3.90;99.90
19862;DHT22;10093;48.148;8.542;2023-12-14T07:20:40;3.90;99.90
19862;DHT22;10093;48.148;8.542;2023-12-14T07:23:06;4.00;99.90
19862;DHT22;10093;48.148;8.542;2023-12-14T07:25:31;4.00;99.90
19862;DHT22;10093;48.148;8.542;2023-12-14T07:27:57;4.00;99.90
19862;DHT22;10093;48.148;8.542;2023-12-14T07:30:23;3.90;99.90
19862;DHT22;10093;48.148;8.542;2023-12-14T07:32:48;3.80;99.90
19862;DHT22;10093;48.148;8.542;2023-12-14T07:35:14;3.60;99.90
19862;DHT22;10093;48.148;8.542;2023-12-14T07:37:39;3.60;99.90
19862;DHT22;10093;48.148;8.542;2023-12-14T07:40:06;3.60;99.90
19862;DHT22;10093;48.148;8.542;2023-12-14T07:42:31;3.50;99.90
19862;DHT22;10093;48.148;8.542;2023-12-14T07:44:57;3.60;99.90
19862;DHT22;10093;48.148;8.542;2023-12-14T07:47:23;3.80;99.90
19862;DHT22;10093;48.148;8.542;2023-12-14T07:49:48;3.60;99.90
19862;DHT22;10093;48.148;8.542;2023-12-14T07:52:14;3.50;99.90
19862;DHT22;10093;48.148;8.542;2023-12-14T07:54:40;3.40;99.90
19862;DHT22;10093;48.148;8.542;2023-12-14T07:57:05;3.40;99.90
19862;DHT22;10093;48.148;8.542;2023-12-14T07:59:31;3.40;99.90
19862;DHT22;10093;48.148;8.542;2023-12-14T08:01:57;3.40;99.90
19862;DHT22;10093;48.148;8.542;2023-12-14T08:04:22;3.40;99.90
19862;DHT22;10093;48.148;8.542;2023-12-14T08:06:48;3.50;99.90
19862;DHT22;10093;48.148;8.542;2023-12-14T08:09:14;3.50;99.90
19862;DHT22;10093;48.148;8.542;2023-12-14T08:11:40;3.60;99.90
19862;DHT22;10093;48.148;8.542;2023-12-14T08:14:06;3.70;99.90
19862;DHT22;10093;48.148;8.542;2023-12-14T08:16:31;3.80;99.90
19862;DHT22;10093;48.148;8.542;2023-12-14T08:18:57;3.90;99.90
19862;DHT22;10093;48.148;8.542;2023-12-14T08:21:23;4.00;99.90
19862;DHT22;10093;48.148;8.542;2023-12-14T08:23:49;4.00;99.90
19862;DHT22;10093;48.148;8.542;2023-12-14T08:26:14;4.10;99.90
19862;DHT22;10093;48.148;8.542;2023-12-14T08:28:40;4.10;99.90
19862;DHT22;10093;48.148;8.542;2023-12-14T08:31:06;4.30;99.90
19862;DHT22;10093;48.148;8.542;2023-12-14T08:33:31;4.40;99.90
19862;DHT22;10093;48.148;8.542;2023-12-14T08:35:57;4.60;99.90
19862;DHT22;10093;48.148;8.542;2023-12-14T08:38:23;4.60;99.90
19862;DHT22;10093;48.148;8.542;2023-12-14T08:40:49;4.80;99.90
19862;DHT22;10093;48.148;8.542;2023-12-14T08:43:14;5.10;99.90
19862;DHT22;10093;48.148;8.542;2023-12-14T08:45:40;5.30;99.90
19862;DHT22;10093;48.148;8.542;2023-12-14T08:48:05;5.40;99.90
19862;DHT22;10093;48.148;8.542;2023-12-14T08:50:31;5.50;99.90
19862;DHT22;10093;48.148;8.542;2023-12-14T08:52:57;5.50;99.90
19862;DHT22;10093;48.148;8.542;2023-12-14T08:55:25;5.60;99.90
19862;DHT22;10093;48.148;8.542;2023-12-14T08:57:52;5.60;99.90
19862;DHT22;10093;48.148;8.542;2023-12-14T09:00:18;5.50;99.90
19862;DHT22;10093;48.148;8.542;2023-12-14T09:02:45;5.60;99.90
19862;DHT22;10093;48.148;8.542;2023-12-14T09:05:14;5.70;99.90
19862;DHT22;10093;48.148;8.542;2023-12-14T09:07:42;5.70;99.90
19862;DHT22;10093;48.148;8.542;2023-12-14T09:10:08;5.60;99.90
19862;DHT22;10093;48.148;8.542;2023-12-14T09:12:33;5.70;99.90
19862;DHT22;10093;48.148;8.542;2023-12-14T09:15:00;5.80;99.90
19862;DHT22;10093;48.148;8.542;2023-12-14T09:17:26;5.80;99.90
19862;DHT22;10093;48.148;8.542;2023-12-14T09:19:52;5.90;99.90
19862;DHT22;10093;48.148;8.542;2023-12-14T09:22:17;6.00;99.90
19862;DHT22;10093;48.148;8.542;2023-12-14T09:24:43;6.00;99.90
19862;DHT22;10093;48.148;8.542;2023-12-14T09:27:09;6.10;99.90
19862;DHT22;10093;48.148;8.542;2023-12-14T09:29:34;6.30;99.90
19862;DHT22;10093;48.148;8.542;2023-12-14T09:32:00;6.30;99.90
19862;DHT22;10093;48.148;8.542;2023-12-14T09:34:25;6.40;99.90
19862;DHT22;10093;48.148;8.542;2023-12-14T09:36:51;6.50;99.90
19862;DHT22;10093;48.148;8.542;2023-12-14T09:39:17;6.50;99.90
19862;DHT22;10093;48.148;8.542;2023-12-14T09:41:44;6.70;99.90
19862;DHT22;10093;48.148;8.542;2023-12-14T09:44:11;6.80;99.90
19862;DHT22;10093;48.148;8.542;2023-12-14T09:46:38;6.90;99.90
19862;DHT22;10093;48.148;8.542;2023-12-14T09:49:04;6.90;99.90
19862;DHT22;10093;48.148;8.542;2023-12-14T09:51:30;6.70;99.90
19862;DHT22;10093;48.148;8.542;2023-12-14T09:53:56;6.70;99.90
19862;DHT22;10093;48.148;8.542;2023-12-14T09:56:26;6.60;99.90
19862;DHT22;10093;48.148;8.542;2023-12-14T09:58:52;6.50;99.90
19862;DHT22;10093;48.148;8.542;2023-12-14T10:01:24;6.60;99.90
19862;DHT22;10093;48.148;8.542;2023-12-14T10:04:16;6.50;99.90
19862;DHT22;10093;48.148;8.542;2023-12-14T10:06:44;6.50;99.90
19862;DHT22;10093;48.148;8.542;2023-12-14T10:09:11;6.40;99.90
19862;DHT22;10093;48.148;8.542;2023-12-14T10:11:43;6.60;99.90
19862;DHT22;10093;48.148;8.542;2023-12-14T10:14:22;7.00;99.90
19862;DHT22;10093;48.148;8.542;2023-12-14T10:16:49;7.10;99.90
19862;DHT22;10093;48.148;8.542;2023-12-14T10:19:17;7.10;99.90
19862;DHT22;10093;48.148;8.542;2023-12-14T10:21:42;7.30;99.90
19862;DHT22;10093;48.148;8.542;2023-12-14T10:24:08;7.40;99.90
19862;DHT22;10093;48.148;8.542;2023-12-14T10:26:34;7.60;99.90
19862;DHT22;10093;48.148;8.542;2023-12-14T10:29:00;7.80;99.90
19862;DHT22;10093;48.148;8.542;2023-12-14T10:31:25;7.60;99.90
19862;DHT22;10093;48.148;8.542;2023-12-14T10:33:52;7.70;99.90
19862;DHT22;10093;48.148;8.542;2023-12-14T10:36:25;7.60;99.90
19862;DHT22;10093;48.148;8.542;2023-12-14T10:38:57;8.80;99.90
19862;DHT22;10093;48.148;8.542;2023-12-14T10:41:24;9.60;99.90
19862;DHT22;10093;48.148;8.542;2023-12-14T10:43:52;9.80;99.90
19862;DHT22;10093;48.148;8.542;2023-12-14T10:46:19;9.50;99.90
19862;DHT22;10093;48.148;8.542;2023-12-14T10:48:47;9.20;99.90
19862;DHT22;10093;48.148;8.542;2023-12-14T10:51:13;9.00;99.90
19862;DHT22;10093;48.148;8.542;2023-12-14T10:53:40;8.80;99.90
19862;DHT22;10093;48.148;8.542;2023-12-14T10:56:10;8.40;99.90
19862;DHT22;10093;48.148;8.542;2023-12-14T10:58:55;8.20;99.90
19862;DHT22;10093;48.148;8.542;2023-12-14T11:01:23;8.00;99.90
19862;DHT22;10093;48.148;8.542;2023-12-14T11:03:56;7.90;99.90
19862;DHT22;10093;48.148;8.542;2023-12-14T11:06:29;7.80;99.90
19862;DHT22;10093;48.148;8.542;2023-12-14T11:09:00;7.50;99.90
19862;DHT22;10093;48.148;8.542;2023-12-14T11:11:30;7.50;99.90
19862;DHT22;10093;48.148;8.542;2023-12-14T11:13:56;7.60;99.90
19862;DHT22;10093;48.148;8.542;2023-12-14T11:16:31;7.70;99.90
19862;DHT22;10093;48.148;8.542;2023-12-14T11:24:25;8.10;99.90
19862;DHT22;10093;48.148;8.542;2023-12-14T11:26:51;8.00;99.90
19862;DHT22;10093;48.148;8.542;2023-12-14T11:29:17;8.20;99.90
19862;DHT22;10093;48.148;8.542;2023-12-14T11:31:44;8.10;99.90
19862;DHT22;10093;48.148;8.542;2023-12-14T11:34:11;8.20;99.90
19862;DHT22;10093;48.148;8.542;2023-12-14T11:36:37;8.30;99.90
19862;DHT22;10093;48.148;8.542;2023-12-14T11:39:07;8.30;99.90
19862;DHT22;10093;48.148;8.542;2023-12-14T11:41:33;9.40;99.90
19862;DHT22;10093;48.148;8.542;2023-12-14T11:43:59;9.90;99.90
19862;DHT22;10093;48.148;8.542;2023-12-14T11:46:25;10.20;99.90
19862;DHT22;10093;48.148;8.542;2023-12-14T11:48:51;9.70;99.90
19862;DHT22;10093;48.148;8.542;2023-12-14T11:51:17;9.30;99.90
19862;DHT22;10093;48.148;8.542;2023-12-14T11:53:45;8.70;99.90
19862;DHT22;10093;48.148;8.542;2023-12-14T11:56:11;8.30;99.90
19862;DHT22;10093;48.148;8.542;2023-12-14T11:58:40;8.10;99.90
19862;DHT22;10093;48.148;8.542;2023-12-14T12:01:17;7.90;99.90
19862;DHT22;10093;48.148;8.542;2023-12-14T12:03:44;7.80;99.90
19862;DHT22;10093;48.148;8.542;2023-12-14T12:06:23;7.70;99.90
19862;DHT22;10093;48.148;8.542;2023-12-14T12:08:49;7.70;99.90
19862;DHT22;10093;48.148;8.542;2023-12-14T12:11:18;7.90;99.90
19862;DHT22;10093;48.148;8.542;2023-12-14T12:13:50;8.00;99.90
19862;DHT22;10093;48.148;8.542;2023-12-14T12:16:16;8.00;99.90
19862;DHT22;10093;48.148;8.542;2023-12-14T12:18:41;8.00;99.90
19862;DHT22;10093;48.148;8.542;2023-12-14T12:21:07;8.00;99.90
19862;DHT22;10093;48.148;8.542;2023-12-14T12:23:34;8.30;99.90
19862;DHT22;10093;48.148;8.542;2023-12-14T12:26:00;8.30;99.90
19862;DHT22;10093;48.148;8.542;2023-12-14T12:28:26;8.20;99.90
19862;DHT22;10093;48.148;8.542;2023-12-14T12:30:51;8.10;99.90
19862;DHT22;10093;48.148;8.542;2023-12-14T12:33:17;8.00;99.90
19862;DHT22;10093;48.148;8.542;2023-12-14T12:35:42;8.00;99.90
19862;DHT22;10093;48.148;8.542;2023-12-14T12:38:08;8.00;99.90
19862;DHT22;10093;48.148;8.542;2023-12-14T12:40:33;8.00;99.90
19862;DHT22;10093;48.148;8.542;2023-12-14T12:42:59;8.00;99.90
19862;DHT22;10093;48.148;8.542;2023-12-14T12:45:25;8.10;99.90
19862;DHT22;10093;48.148;8.542;2023-12-14T12:47:54;7.90;99.90
19862;DHT22;10093;48.148;8.542;2023-12-14T12:50:20;7.80;99.90
19862;DHT22;10093;48.148;8.542;2023-12-14T12:52:46;7.90;99.90
19862;DHT22;10093;48.148;8.542;2023-12-14T12:55:14;7.60;99.90
19862;DHT22;10093;48.148;8.542;2023-12-14T12:57:40;8.30;99.90
19862;DHT22;10093;48.148;8.542;2023-12-14T13:00:08;8.70;99.90
19862;DHT22;10093;48.148;8.542;2023-12-14T13:02:38;8.90;99.90
19862;DHT22;10093;48.148;8.542;2023-12-14T13:05:05;8.70;99.90
19862;DHT22;10093;48.148;8.542;2023-12-14T13:07:31;8.40;99.90
19862;DHT22;10093;48.148;8.542;2023-12-14T13:09:57;8.20;99.90
19862;DHT22;10093;48.148;8.542;2023-12-14T13:12:23;8.20;99.90
19862;DHT22;10093;48.148;8.542;2023-12-14T13:14:48;8.10;99.90
19862;DHT22;10093;48.148;8.542;2023-12-14T13:17:14;8.20;99.90
19862;DHT22;10093;48.148;8.542;2023-12-14T13:19:41;8.10;99.90
19862;DHT22;10093;48.148;8.542;2023-12-14T13:22:07;8.00;99.90
19862;DHT22;10093;48.148;8.542;2023-12-14T13:24:33;8.00;99.90
19862;DHT22;10093;48.148;8.542;2023-12-14T13:26:59;7.80;99.90
19862;DHT22;10093;48.148;8.542;2023-12-14T13:29:24;8.10;99.90
19862;DHT22;10093;48.148;8.542;2023-12-14T13:31:50;8.30;99.90
19862;DHT22;10093;48.148;8.542;2023-12-14T13:34:16;8.20;99.90
19862;DHT22;10093;48.148;8.542;2023-12-14T13:36:41;8.60;99.90
19862;DHT22;10093;48.148;8.542;2023-12-14T13:39:07;8.60;99.90
19862;DHT22;10093;48.148;8.542;2023-12-14T13:41:32;8.50;99.90
19862;DHT22;10093;48.148;8.542;2023-12-14T13:44:00;8.30;99.90
19862;DHT22;10093;48.148;8.542;2023-12-14T13:46:26;8.00;99.90
19862;DHT22;10093;48.148;8.542;2023-12-14T13:48:51;7.70;99.90
19862;DHT22;10093;48.148;8.542;2023-12-14T13:51:18;7.20;99.90
19862;DHT22;10093;48.148;8.542;2023-12-14T13:53:43;7.10;99.90
19862;DHT22;10093;48.148;8.542;2023-12-14T13:56:09;6.90;99.90
19862;DHT22;10093;48.148;8.542;2023-12-14T13:58:35;6.60;99.90
19862;DHT22;10093;48.148;8.542;2023-12-14T14:01:06;6.60;99.90
19862;DHT22;10093;48.148;8.542;2023-12-14T14:03:36;6.70;99.90
19862;DHT22;10093;48.148;8.542;2023-12-14T14:06:03;7.20;99.90
19862;DHT22;10093;48.148;8.542;2023-12-14T14:08:29;7.40;99.90
19862;DHT22;10093;48.148;8.542;2023-12-14T14:10:57;7.50;99.90
19862;DHT22;10093;48.148;8.542;2023-12-14T14:13:23;7.50;99.90
19862;DHT22;10093;48.148;8.542;2023-12-14T14:15:48;7.60;99.90
19862;DHT22;10093;48.148;8.542;2023-12-14T14:18:14;7.60;99.90
19862;DHT22;10093;48.148;8.542;2023-12-14T14:20:39;7.60;99.90
19862;DHT22;10093;48.148;8.542;2023-12-14T14:23:05;7.50;99.90
19862;DHT22;10093;48.148;8.542;2023-12-14T14:25:31;7.40;99.90
19862;DHT22;10093;48.148;8.542;2023-12-14T14:27:56;7.20;99.90
19862;DHT22;10093;48.148;8.542;2023-12-14T14:30:22;7.00;99.90
19862;DHT22;10093;48.148;8.542;2023-12-14T14:32:48;6.60;99.90
19862;DHT22;10093;48.148;8.542;2023-12-14T14:35:14;6.40;99.90
19862;DHT22;10093;48.148;8.542;2023-12-14T14:37:39;6.00;99.90
19862;DHT22;10093;48.148;8.542;2023-12-14T14:40:11;5.70;99.90
19862;DHT22;10093;48.148;8.542;2023-12-14T14:42:36;5.90;99.90
19862;DHT22;10093;48.148;8.542;2023-12-14T14:45:02;5.90;99.90
19862;DHT22;10093;48.148;8.542;2023-12-14T14:47:28;5.80;99.90
19862;DHT22;10093;48.148;8.542;2023-12-14T14:49:53;6.00;99.90
19862;DHT22;10093;48.148;8.542;2023-12-14T14:52:22;6.10;99.90
19862;DHT22;10093;48.148;8.542;2023-12-14T14:54:49;5.90;99.90
19862;DHT22;10093;48.148;8.542;2023-12-14T14:57:14;6.00;99.90
19862;DHT22;10093;48.148;8.542;2023-12-14T14:59:40;6.10;99.90
19862;DHT22;10093;48.148;8.542;2023-12-14T15:02:06;6.00;99.90
19862;DHT22;10093;48.148;8.542;2023-12-14T15:04:32;6.00;99.90
19862;DHT22;10093;48.148;8.542;2023-12-14T15:06:57;5.80;99.90
19862;DHT22;10093;48.148;8.542;2023-12-14T15:09:23;5.70;99.90
19862;DHT22;10093;48.148;8.542;2023-12-14T15:11:49;5.80;99.90
19862;DHT22;10093;48.148;8.542;2023-12-14T15:14:14;5.90;99.90
19862;DHT22;10093;48.148;8.542;2023-12-14T15:16:40;6.00;99.90
19862;DHT22;10093;48.148;8.542;2023-12-14T15:19:06;5.90;99.90
19862;DHT22;10093;48.148;8.542;2023-12-14T15:21:32;6.10;99.90
19862;DHT22;10093;48.148;8.542;2023-12-14T15:23:58;5.90;99.90
19862;DHT22;10093;48.148;8.542;2023-12-14T15:26:23;6.00;99.90
19862;DHT22;10093;48.148;8.542;2023-12-14T15:28:49;5.90;99.90
19862;DHT22;10093;48.148;8.542;2023-12-14T15:31:15;5.80;99.90
19862;DHT22;10093;48.148;8.542;2023-12-14T15:33:40;5.70;99.90
19862;DHT22;10093;48.148;8.542;2023-12-14T15:36:09;5.70;99.90
19862;DHT22;10093;48.148;8.542;2023-12-14T15:38:34;5.70;99.90
19862;DHT22;10093;48.148;8.542;2023-12-14T15:41:00;5.50;99.90
19862;DHT22;10093;48.148;8.542;2023-12-14T15:43:26;5.70;99.90